• Join FlightAware (Why Join?)
  • Login
  • US Flag 
09:12PM EDT


 

Airport Tracker/Info


-or-


 

Live Flight TrackerFlight Track Log ✈ VH-JET ✈ 14-Jun-2013 ✈ YARM - YBST

Flight Track Log - Related Links

Times and Time Zones

All times are in EDT time to prevent confusion due to time zone crossing. See the VH-JET flight status page for this flight to view local times or setup timezone preferences in your user account.

Time Position Orientation Groundspeed Altitude Reporting Facility
EDT Latitude Longitude Course Direction KTS MPH feet Rate Location/Type
11:44PM -30.5387 151.6009 233° Southwest 120 138 4,400  Level Aus ATC (RADAR)
11:45PM -30.5663 151.5589 233° Southwest 130 150 6,800 1,800 Climbing Aus ATC (RADAR)
11:45PM -30.5836 151.5468 211° Southwest 142 163 7,600 1,800 Climbing Aus ATC (RADAR)
11:47PM -30.6131 151.5145 223° Southwest 131 151 9,700 1,800 Climbing Aus ATC (RADAR)
11:48PM -30.6601 151.4574 226° Southwest 139 160 12,700 1,680 Climbing Aus ATC (RADAR)
11:49PM -30.6670 151.4487 227° Southwest 143 165 13,100 1,800 Climbing Aus ATC (RADAR)
11:49PM -30.6833 151.4287 226° Southwest 146 168 14,200 1,620 Climbing Aus ATC (RADAR)
11:50PM -30.7119 151.3933 227° Southwest 152 175 15,700 1,500 Climbing Aus ATC (RADAR)
11:51PM -30.7264 151.3751 227° Southwest 152 175 16,500 1,620 Climbing Aus ATC (RADAR)
11:52PM -30.7521 151.3411 229° Southwest 151 174 18,100 1,680 Climbing Aus ATC (RADAR)
11:52PM -30.7787 151.3070 228° Southwest 156 180 19,600 1,560 Climbing Aus ATC (RADAR)
11:53PM -30.8049 151.2807 221° Southwest 164 189 20,700 1,380 Climbing Aus ATC (RADAR)
11:54PM -30.8253 151.2596 222° Southwest 168 193 21,500 1,380 Climbing Aus ATC (RADAR)
11:55PM -30.8563 151.2208 227° Southwest 164 189 22,900 1,440 Climbing Aus ATC (RADAR)
11:55PM -30.8740 151.1976 228° Southwest 163 188 23,800 600 Climbing Aus ATC (RADAR)
11:56PM -30.9089 151.1521 228° Southwest 199 229 23,900  Climbing Aus ATC (RADAR)
11:57PM -30.9557 151.0932 227° Southwest 234 269 23,900  Level Aus ATC (RADAR)
11:58PM -30.9858 151.0558 227° Southwest 237 273 23,900  Level Aus ATC (RADAR)
11:58PM -31.0012 151.0364 227° Southwest 243 280 23,900  Level Aus ATC (RADAR)
11:59PM -31.0282 151.0031 227° Southwest 243 280 23,900  Level Aus ATC (RADAR)
12:00AM -31.0631 150.9597 227° Southwest 245 282 23,900  Level Aus ATC (RADAR)
12:00AM -31.0943 150.9211 227° Southwest 246 283 23,900  Level Aus ATC (RADAR)
12:01AM -31.1373 150.8670 227° Southwest 249 287 23,900  Level Aus ATC (RADAR)
12:02AM -31.1842 150.8096 226° Southwest 246 283 23,900  Level Aus ATC (RADAR)
12:03AM -31.2172 150.7674 228° Southwest 237 273 23,900  Level Aus ATC (RADAR)
12:03AM -31.2301 150.7516 226° Southwest 244 281 23,900  Level Aus ATC (RADAR)
12:04AM -31.2569 150.7181 227° Southwest 243 280 23,900  Level Aus ATC (RADAR)
12:05AM -31.2960 150.6696 227° Southwest 247 284 23,900  Level Aus ATC (RADAR)
12:05AM -31.3140 150.6469 227° Southwest 241 277 23,900  Level Aus ATC (RADAR)
12:06AM -31.3352 150.6208 227° Southwest 248 285 23,900  Level Aus ATC (RADAR)
12:08AM -31.4242 150.5092 227° Southwest 244 281 23,900  Level Aus ATC (RADAR)
12:08AM -31.4566 150.4682 227° Southwest 248 285 23,900  Level Aus ATC (RADAR)
12:08AM -31.4684 150.4534 227° Southwest 248 285 23,900  Level Aus ATC (RADAR)
12:09AM -31.4957 150.4189 227° Southwest 248 285 23,900  Level Aus ATC (RADAR)
12:10AM -31.5349 150.3697 227° Southwest 249 287 23,900  Level Aus ATC (RADAR)
12:10AM -31.5623 150.3352 227° Southwest 248 285 23,900  Level Aus ATC (RADAR)
12:11AM -31.6091 150.2764 227° Southwest 247 284 23,900  Level Aus ATC (RADAR)
12:12AM -31.6505 150.2244 227° Southwest 243 280 23,900  Level Aus ATC (RADAR)
12:13AM -31.6793 150.1876 227° Southwest 249 287 23,900  Level Aus ATC (RADAR)
12:13AM -31.6910 150.1731 227° Southwest 248 285 23,900  Level Aus ATC (RADAR)
12:14AM -31.7185 150.1387 227° Southwest 248 285 23,900  Level Aus ATC (RADAR)
12:17AM -31.8868 149.9249 227° Southwest 247 284 23,900 -60 Level Aus ATC (RADAR)
12:19AM -31.9632 149.8275 227° Southwest 245 282 23,700  Descending Aus ATC (RADAR)
12:21AM -32.0423 149.7264 227° Southwest 248 285 23,900 60 Climbing Aus ATC (RADAR)
12:22AM -32.1043 149.6469 227° Southwest 249 287 23,900 -180 Level Aus ATC (RADAR)
12:22AM -32.1182 149.6289 228° Southwest 244 281 23,700  Descending Aus ATC (RADAR)
12:25AM -32.2369 149.4762 227° Southwest 249 287 23,900  Climbing Aus ATC (RADAR)
12:26AM -32.3026 149.3914 227° Southwest 248 285 23,900  Level Aus ATC (RADAR)
12:26AM -32.3142 149.3765 227° Southwest 248 285 23,900  Level Aus ATC (RADAR)
12:28AM -32.3839 149.2864 228° Southwest 249 287 23,900 -60 Level Aus ATC (RADAR)
12:31AM -32.5026 149.1321 228° Southwest 245 282 23,700  Descending Aus ATC (RADAR)
12:32AM -32.5659 149.0493 228° Southwest 250 288 23,900 120 Climbing Aus ATC (RADAR)
12:32AM -32.5775 149.0341 228° Southwest 250 288 23,900 -180 Level Aus ATC (RADAR)
12:33AM -32.6221 148.9763 227° Southwest 243 280 23,700 -180 Descending Aus ATC (RADAR)
12:34AM -32.6503 148.9393 228° Southwest 246 283 23,700  Level Aus ATC (RADAR)
12:34AM -32.6847 148.8945 228° Southwest 247 284 23,700  Level Aus ATC (RADAR)
12:35AM -32.7270 148.8388 228° Southwest 249 287 23,700  Level Aus ATC (RADAR)
12:36AM -32.7616 148.7938 228° Southwest 248 285 23,700  Level Aus ATC (RADAR)
12:37AM -32.7883 148.7580 228° Southwest 248 285 23,700  Level Aus ATC (RADAR)
12:38AM -32.8369 148.6944 228° Southwest 244 281 23,700  Level Aus ATC (RADAR)
12:38AM -32.8657 148.6562 228° Southwest 250 288 23,700  Level Aus ATC (RADAR)
12:39AM -32.9124 148.5949 228° Southwest 251 289 23,700 -360 Level Aus ATC (RADAR)
12:41AM -32.9827 148.5015 228° Southwest 254 292 22,800 -720 Descending Aus ATC (RADAR)
12:41AM -32.9958 148.4841 228° Southwest 243 280 22,500 -1,140 Descending Aus ATC (RADAR)
12:42AM -33.0204 148.4511 228° Southwest 229 264 21,800 -1,140 Descending Aus ATC (RADAR)
12:43AM -33.0606 148.3926 231° Southwest 220 253 20,700 -1,140 Descending Aus ATC (RADAR)
12:43AM -33.0829 148.3600 231° Southwest 218 251 20,000 -1,140 Descending Aus ATC (RADAR)
12:44AM -33.1231 148.3021 230° Southwest 214 246 18,900 -1,260 Descending Aus ATC (RADAR)
12:46AM -33.1784 148.2213 231° Southwest 223 257 17,000 -1,440 Descending Aus ATC (RADAR)
12:47AM -33.2047 148.1831 231° Southwest 227 261 15,900 -1,440 Descending Aus ATC (RADAR)
12:47AM -33.2405 148.1311 231° Southwest 222 255 14,800 -1,260 Descending Aus ATC (RADAR)
12:48AM -33.2724 148.0848 230° Southwest 217 250 13,800 -1,140 Descending Aus ATC (RADAR)
12:49AM -33.2943 148.0525 231° Southwest 215 247 13,200 -1,080 Descending Aus ATC (RADAR)
12:50AM -33.3280 148.0033 231° Southwest 208 239 12,200 -1,080 Descending Aus ATC (RADAR)
12:51AM -33.3783 147.9297 231° Southwest 200 230 10,700 -1,080 Descending Aus ATC (RADAR)
12:51AM -33.3863 147.9181 230° Southwest 194 223 10,400 -1,080 Descending Aus ATC (RADAR)
12:52AM -33.4069 147.8865 232° Southwest 203 234 9,800 -1,020 Descending Aus ATC (RADAR)
12:53AM -33.4403 147.8383 230° Southwest 195 224 8,800 -960 Descending Aus ATC (RADAR)
12:54AM -33.4603 147.8093 231° Southwest 185 213 8,300 -1,020 Descending Aus ATC (RADAR)
12:55AM -33.4933 147.7600 231° Southwest 181 208 7,200 -960 Descending Aus ATC (RADAR)
12:57AM -33.5629 147.6573 231° Southwest 180 207 5,100 -900 Descending Aus ATC (RADAR)
12:57AM -33.5724 147.6435 231° Southwest 180 207 4,900 -600 Descending Aus ATC (RADAR)